createdAt,value
2023-08-05T00:02:04.262Z,100099.60
2023-08-05T00:04:38.675Z,100087.20
2023-08-05T00:07:13.007Z,100088.20
2023-08-05T00:09:47.462Z,100076.80
2023-08-05T00:12:21.853Z,100084.40
2023-08-05T00:14:56.186Z,100090.60
2023-08-05T00:17:30.842Z,100096.60
2023-08-05T00:20:05.665Z,100094.20
2023-08-05T00:22:40.112Z,100088.20
2023-08-05T00:25:14.961Z,100095.00
2023-08-05T00:27:49.285Z,100091.00
2023-08-05T00:30:23.787Z,100080.60
2023-08-05T00:32:58.206Z,100085.00
2023-08-05T00:35:32.928Z,100077.80
2023-08-05T00:38:07.210Z,100069.60
2023-08-05T00:40:43.319Z,100071.20
2023-08-05T00:43:17.551Z,100074.40
2023-08-05T00:45:52.086Z,100065.60
2023-08-05T00:48:26.681Z,100066.60
2023-08-05T00:51:02.751Z,100067.40
2023-08-05T00:53:38.893Z,100074.20
2023-08-05T00:56:13.356Z,100069.60
2023-08-05T00:58:49.183Z,100061.00
2023-08-05T01:01:24.297Z,100058.00
2023-08-05T01:03:58.664Z,100052.00
2023-08-05T01:06:35.524Z,100046.20
2023-08-05T01:09:11.399Z,100052.80
2023-08-05T01:11:45.990Z,100055.60
2023-08-05T01:14:20.569Z,100056.80
2023-08-05T01:16:55.041Z,100052.20
2023-08-05T01:19:32.158Z,100049.40
2023-08-05T01:22:19.963Z,100049.80
2023-08-05T01:25:08.538Z,100052.80
2023-08-05T01:27:44.155Z,100052.00
2023-08-05T01:30:18.470Z,100046.60
2023-08-05T01:32:54.489Z,100035.40
2023-08-05T01:35:28.994Z,100035.20
2023-08-05T01:38:03.285Z,100038.40
2023-08-05T01:40:38.103Z,100034.60
2023-08-05T01:43:12.553Z,100028.00
2023-08-05T01:45:46.724Z,100017.20
2023-08-05T01:48:21.396Z,100014.80
2023-08-05T01:50:55.847Z,100017.20
2023-08-05T01:53:30.166Z,100010.40
2023-08-05T01:56:04.627Z,100014.40
2023-08-05T01:58:38.983Z,100011.60
2023-08-05T02:01:13.454Z,100006.80
2023-08-05T02:03:47.879Z,100005.60
2023-08-05T02:06:22.378Z,100014.60
2023-08-05T02:08:56.703Z,100020.40
2023-08-05T02:11:31.962Z,100014.40
2023-08-05T02:14:06.221Z,100008.60
2023-08-05T02:16:40.831Z,100015.60
2023-08-05T02:19:15.724Z,100009.80
2023-08-05T02:21:50.265Z,100008.00
2023-08-05T02:24:24.739Z,100006.80
2023-08-05T02:26:58.989Z,100009.00
2023-08-05T02:29:33.452Z,99995.40
2023-08-05T02:32:09.487Z,99983.60
2023-08-05T02:34:43.862Z,99986.80
2023-08-05T02:37:18.110Z,99983.80
2023-08-05T02:39:52.446Z,99988.80
2023-08-05T02:42:26.829Z,99984.20
2023-08-05T02:45:01.163Z,99980.40
2023-08-05T02:47:35.725Z,99981.20
2023-08-05T02:50:11.872Z,99982.00
2023-08-05T02:52:46.269Z,99980.60
2023-08-05T02:55:20.654Z,99971.20
2023-08-05T02:57:54.937Z,99976.00
2023-08-05T03:00:29.270Z,99971.00
2023-08-05T03:03:03.963Z,99968.00
2023-08-05T03:05:38.480Z,99968.00
2023-08-05T03:08:13.360Z,99972.20
2023-08-05T03:10:47.995Z,99972.20
2023-08-05T03:13:22.651Z,99983.60
2023-08-05T03:15:59.101Z,99990.60
2023-08-05T03:18:33.372Z,99995.80
2023-08-05T03:21:07.667Z,100001.40
2023-08-05T03:23:43.774Z,100000.80
2023-08-05T03:26:18.055Z,100000.60
2023-08-05T03:28:52.750Z,100009.40
2023-08-05T03:31:27.476Z,100014.20
2023-08-05T03:34:02.327Z,100017.60
2023-08-05T03:36:38.717Z,100009.00
2023-08-05T03:39:13.341Z,100007.80
2023-08-05T03:41:47.599Z,100002.40
2023-08-05T03:44:21.974Z,99997.00
2023-08-05T03:46:56.542Z,99999.20
2023-08-05T03:49:30.914Z,99995.40
2023-08-05T03:52:06.055Z,99983.40
2023-08-05T03:54:40.331Z,99981.80
2023-08-05T03:57:14.820Z,99982.20
2023-08-05T03:59:51.196Z,99980.80
2023-08-05T04:02:25.440Z,99975.20
2023-08-05T04:04:59.705Z,99980.80
2023-08-05T04:07:34.002Z,99983.40
2023-08-05T04:10:10.033Z,99987.80
2023-08-05T04:12:44.376Z,99991.20
2023-08-05T04:15:20.035Z,99994.00
2023-08-05T04:17:58.847Z,99993.00
2023-08-05T04:20:35.719Z,99986.80
2023-08-05T04:23:11.373Z,99986.60
2023-08-05T04:25:49.257Z,99983.80
2023-08-05T04:28:23.433Z,99995.20
2023-08-05T04:30:59.018Z,99990.00
2023-08-05T04:33:33.900Z,99986.60
2023-08-05T04:36:08.631Z,99985.40
2023-08-05T04:38:43.048Z,99986.60
2023-08-05T04:41:17.413Z,99983.40
2023-08-05T04:43:52.047Z,99988.80
2023-08-05T04:46:26.491Z,99991.80
2023-08-05T04:49:00.783Z,99990.40
2023-08-05T04:51:35.064Z,99983.20
2023-08-05T04:54:10.964Z,99984.20
2023-08-05T04:56:45.263Z,99988.80
2023-08-05T04:59:21.244Z,99995.60
2023-08-05T05:01:55.554Z,100000.20
2023-08-05T05:04:30.129Z,99994.20
2023-08-05T05:07:04.626Z,99989.80
2023-08-05T05:09:39.088Z,99990.20
2023-08-05T05:12:14.165Z,99998.00
2023-08-05T05:14:49.724Z,99998.00
2023-08-05T05:17:24.227Z,100001.80
2023-08-05T05:19:58.906Z,99996.40
2023-08-05T05:22:33.209Z,99999.00
2023-08-05T05:25:09.026Z,100003.40
2023-08-05T05:27:43.490Z,100009.40
2023-08-05T05:30:18.078Z,100009.60
2023-08-05T05:32:52.662Z,100002.00
2023-08-05T05:35:26.999Z,99993.80
2023-08-05T05:38:01.947Z,99976.40
2023-08-05T05:40:40.860Z,99977.40
2023-08-05T05:43:15.151Z,99986.60
2023-08-05T05:45:49.756Z,99992.60
2023-08-05T05:48:24.155Z,99999.60
2023-08-05T05:50:58.831Z,100009.80
2023-08-05T05:53:33.203Z,100009.40
2023-08-05T05:56:07.790Z,100013.20
2023-08-05T05:58:42.247Z,100011.80
2023-08-05T06:01:16.909Z,100004.80
2023-08-05T06:03:51.604Z,100006.00
2023-08-05T06:06:26.271Z,99998.20
2023-08-05T06:09:02.256Z,100000.40
2023-08-05T06:11:36.931Z,99999.20
2023-08-05T06:14:11.276Z,100000.40
2023-08-05T06:16:45.953Z,99997.60
2023-08-05T06:19:20.390Z,100004.00
2023-08-05T06:21:54.931Z,100010.60
2023-08-05T06:24:30.648Z,100011.60
2023-08-05T06:27:05.097Z,100005.00
2023-08-05T06:29:39.430Z,99995.40
2023-08-05T06:32:14.580Z,99993.40
2023-08-05T06:34:48.859Z,99992.60
2023-08-05T06:37:23.626Z,99988.00
2023-08-05T06:39:58.061Z,99982.40
2023-08-05T06:42:32.917Z,99983.00
2023-08-05T06:45:09.246Z,99984.00
2023-08-05T06:47:43.792Z,99985.80
2023-08-05T06:50:18.271Z,99983.60
2023-08-05T06:52:52.863Z,99983.40
2023-08-05T06:55:27.327Z,99978.20
2023-08-05T06:58:01.718Z,99971.60
2023-08-05T07:00:36.106Z,99966.40
2023-08-05T07:03:10.676Z,99964.40
2023-08-05T07:05:45.171Z,99963.60
2023-08-05T07:08:21.965Z,99966.40
2023-08-05T07:11:00.932Z,99968.00
2023-08-05T07:13:35.415Z,99975.00
2023-08-05T07:16:10.190Z,99976.60
2023-08-05T07:18:44.697Z,99975.80
2023-08-05T07:21:19.383Z,99975.40
2023-08-05T07:23:59.649Z,99968.40
2023-08-05T07:26:35.164Z,99965.40
2023-08-05T07:29:09.560Z,99966.60
2023-08-05T07:31:44.308Z,99969.80
2023-08-05T07:34:20.356Z,99967.80
2023-08-05T07:36:55.512Z,99971.60
2023-08-05T07:39:34.906Z,99976.40
2023-08-05T07:42:10.768Z,99972.00
2023-08-05T07:44:47.476Z,99971.20
2023-08-05T07:47:22.258Z,99970.40
2023-08-05T07:49:56.913Z,99966.20
2023-08-05T07:52:32.653Z,99961.20
2023-08-05T07:55:08.096Z,99954.60
2023-08-05T07:57:43.026Z,99960.40
2023-08-05T08:00:18.771Z,99953.60
2023-08-05T08:02:53.310Z,99948.20
2023-08-05T08:05:28.574Z,99939.80
2023-08-05T08:08:03.461Z,99932.20
2023-08-05T08:10:38.427Z,99928.60
2023-08-05T08:13:12.940Z,99926.40
2023-08-05T08:15:47.382Z,99921.60
2023-08-05T08:18:23.223Z,99923.60
2023-08-05T08:20:58.061Z,99927.00
2023-08-05T08:23:32.593Z,99928.60
2023-08-05T08:26:07.244Z,99923.20
2023-08-05T08:28:42.193Z,99911.20
2023-08-05T08:31:17.118Z,99905.80
2023-08-05T08:33:52.166Z,99899.60
2023-08-05T08:36:27.401Z,99896.60
2023-08-05T08:39:03.220Z,99897.40
2023-08-05T08:41:44.549Z,99894.60
2023-08-05T08:44:22.323Z,99884.60
2023-08-05T08:46:58.340Z,99889.40
2023-08-05T08:49:38.526Z,99883.00
2023-08-05T08:52:16.853Z,99873.40
2023-08-05T08:54:53.047Z,99872.00
2023-08-05T08:57:28.270Z,99873.60
2023-08-05T09:00:03.336Z,99881.20
2023-08-05T09:02:39.900Z,99882.00
2023-08-05T09:05:16.690Z,99883.80
2023-08-05T09:07:53.101Z,99881.80
2023-08-05T09:10:27.826Z,99887.00
2023-08-05T09:13:02.147Z,99893.40
2023-08-05T09:15:41.675Z,99896.60
2023-08-05T09:18:16.632Z,99898.40
2023-08-05T09:20:53.339Z,99897.00
2023-08-05T09:23:27.749Z,99907.80
2023-08-05T09:26:02.726Z,99913.00
2023-08-05T09:28:37.370Z,99911.60
2023-08-05T09:31:21.724Z,99915.40
2023-08-05T09:33:56.522Z,99913.60
2023-08-05T09:36:34.940Z,99912.00
2023-08-05T09:39:14.489Z,99910.20
2023-08-05T09:41:55.967Z,99900.80
2023-08-05T09:44:33.918Z,99906.60
2023-08-05T09:47:11.178Z,99918.00
2023-08-05T09:49:46.678Z,99925.20
2023-08-05T09:52:24.993Z,99926.40
2023-08-05T09:55:05.844Z,99925.20
2023-08-05T09:57:40.970Z,99922.40
2023-08-05T10:00:19.357Z,99927.00
2023-08-05T10:02:55.019Z,99935.00
2023-08-05T10:05:31.240Z,99935.60
2023-08-05T10:08:08.030Z,99937.20
2023-08-05T10:10:44.028Z,99929.40
2023-08-05T10:13:23.225Z,99927.60
2023-08-05T10:16:00.156Z,99926.80
2023-08-05T10:18:37.343Z,99926.80
2023-08-05T10:21:12.578Z,99925.80
2023-08-05T10:24:02.010Z,99923.40
2023-08-05T10:26:47.950Z,99917.40
2023-08-05T10:29:35.528Z,99916.80
2023-08-05T10:32:18.705Z,99913.00
2023-08-05T10:35:32.948Z,99914.60
2023-08-05T10:38:24.715Z,99907.00
2023-08-05T10:41:01.969Z,99909.40
2023-08-05T10:43:43.071Z,99914.20
2023-08-05T10:46:18.864Z,99912.20
2023-08-05T10:48:56.531Z,99920.00
2023-08-05T10:51:34.983Z,99922.00
2023-08-05T10:54:10.441Z,99925.60
2023-08-05T10:56:45.184Z,99920.20
2023-08-05T10:59:20.293Z,99918.60
2023-08-05T11:02:01.561Z,99918.00
2023-08-05T11:04:36.789Z,99913.60
2023-08-05T11:07:11.678Z,99910.40
2023-08-05T11:09:48.277Z,99906.40
2023-08-05T11:12:23.041Z,99905.80
2023-08-05T11:14:58.694Z,99907.80
2023-08-05T11:17:33.290Z,99906.60
2023-08-05T11:20:10.789Z,99906.40
2023-08-05T11:22:52.364Z,99899.20
2023-08-05T11:25:26.968Z,99891.20
2023-08-05T11:28:02.386Z,99895.40
2023-08-05T11:30:42.270Z,99892.60
2023-08-05T11:33:17.533Z,99889.40
2023-08-05T11:35:57.020Z,99889.20
2023-08-05T11:38:31.615Z,99891.80
2023-08-05T11:41:06.371Z,99894.60
2023-08-05T11:43:42.480Z,99894.60
2023-08-05T11:46:33.836Z,99887.20
2023-08-05T11:49:17.843Z,99895.00
2023-08-05T11:51:55.201Z,99898.00
2023-08-05T11:54:35.237Z,99892.40
2023-08-05T11:57:23.079Z,99893.00
2023-08-05T11:59:58.009Z,99898.00
2023-08-05T12:02:36.577Z,99898.40
2023-08-05T12:05:12.690Z,99904.60
2023-08-05T12:07:47.435Z,99899.40
2023-08-05T12:10:23.692Z,99893.20
2023-08-05T12:12:58.442Z,99896.40
2023-08-05T12:15:33.204Z,99899.80
2023-08-05T12:18:08.703Z,99901.60
2023-08-05T12:20:43.552Z,99897.40
2023-08-05T12:23:17.891Z,99894.40
2023-08-05T12:25:53.113Z,99882.00
2023-08-05T12:28:27.580Z,99883.00
2023-08-05T12:31:02.162Z,99880.00
2023-08-05T12:33:36.907Z,99890.20
2023-08-05T12:36:11.913Z,99887.80
2023-08-05T12:38:49.554Z,99884.60
2023-08-05T12:41:25.068Z,99877.00
2023-08-05T12:43:59.833Z,99871.00
2023-08-05T12:46:34.641Z,99868.40
2023-08-05T12:49:09.432Z,99867.80
2023-08-05T12:51:44.266Z,99866.00
2023-08-05T12:54:19.102Z,99866.40
2023-08-05T12:56:53.839Z,99869.40
2023-08-05T12:59:28.699Z,99864.80
2023-08-05T13:02:03.962Z,99863.00
2023-08-05T13:04:38.977Z,99851.80
2023-08-05T13:07:15.060Z,99848.00
2023-08-05T13:09:51.972Z,99838.60
2023-08-05T13:12:28.941Z,99839.40
2023-08-05T13:15:05.571Z,99843.60
2023-08-05T13:17:40.978Z,99843.40
2023-08-05T13:20:17.929Z,99843.00
2023-08-05T13:22:53.554Z,99835.80
2023-08-05T13:25:30.005Z,99833.20
2023-08-05T13:28:06.945Z,99824.80
2023-08-05T13:30:45.010Z,99831.00
2023-08-05T13:33:20.928Z,99829.80
2023-08-05T13:35:57.038Z,99826.20
2023-08-05T13:38:33.941Z,99818.20
2023-08-05T13:41:10.924Z,99813.20
2023-08-05T13:43:47.967Z,99802.80
2023-08-05T13:46:23.969Z,99807.40
2023-08-05T13:49:01.080Z,99810.80
2023-08-05T13:51:37.953Z,99813.60
2023-08-05T13:54:14.920Z,99810.40
2023-08-05T13:56:51.943Z,99813.00
2023-08-05T13:59:28.918Z,99811.40
2023-08-05T14:02:04.994Z,99814.20
2023-08-05T14:04:45.961Z,99826.60
2023-08-05T14:07:22.936Z,99823.00
2023-08-05T14:10:01.936Z,99819.60
2023-08-05T14:12:37.958Z,99806.60
2023-08-05T14:15:15.964Z,99803.40
2023-08-05T14:40:15.002Z,99799.60
2023-08-05T14:42:49.684Z,99796.20
2023-08-05T14:45:24.784Z,99791.00
2023-08-05T14:48:00.121Z,99787.80
2023-08-05T14:50:37.369Z,99786.00
2023-08-05T14:53:13.718Z,99790.40
2023-08-05T14:55:58.976Z,99784.60
2023-08-05T14:58:34.024Z,99786.80
2023-08-05T15:01:19.841Z,99782.40
2023-08-05T15:03:55.361Z,99784.20
2023-08-05T15:06:30.444Z,99783.60
2023-08-05T15:09:06.623Z,99776.20
2023-08-05T15:11:42.350Z,99780.40
2023-08-05T15:14:17.656Z,99775.40
2023-08-05T15:16:52.746Z,99776.60
2023-08-05T15:19:27.544Z,99778.00
2023-08-05T15:22:02.313Z,99788.60
2023-08-05T15:24:37.089Z,99787.40
2023-08-05T15:27:12.474Z,99785.20
2023-08-05T15:29:57.276Z,99783.80
2023-08-05T15:32:31.915Z,99782.40
2023-08-05T15:35:08.247Z,99782.20
2023-08-05T15:37:42.737Z,99790.00
2023-08-05T15:40:17.842Z,99785.40
2023-08-05T15:42:52.683Z,99793.00
2023-08-05T15:45:29.104Z,99782.80
2023-08-05T15:48:04.030Z,99780.40
2023-08-05T15:50:39.312Z,99780.60
2023-08-05T15:53:14.316Z,99770.20
2023-08-05T15:55:49.724Z,99769.40
2023-08-05T15:58:24.765Z,99763.80
2023-08-05T16:01:07.336Z,99759.60
2023-08-05T16:03:43.353Z,99751.20
2023-08-05T16:06:18.606Z,99748.20
2023-08-05T16:08:53.090Z,99739.00
2023-08-05T16:11:32.503Z,99730.40
2023-08-05T16:14:07.522Z,99725.00
2023-08-05T16:16:42.282Z,99720.40
2023-08-05T16:19:21.836Z,99709.40
2023-08-05T16:21:58.149Z,99696.00
2023-08-05T16:24:33.396Z,99690.80
2023-08-05T16:27:09.585Z,99689.20
2023-08-05T16:29:44.580Z,99655.80
2023-08-05T16:32:19.491Z,99622.60
2023-08-05T16:34:54.557Z,99631.40
2023-08-05T16:37:29.820Z,99654.20
2023-08-05T16:40:05.319Z,99671.00
2023-08-05T16:42:41.169Z,99688.40
2023-08-05T16:45:16.508Z,99696.40
2023-08-05T16:47:51.435Z,99710.60
2023-08-05T17:17:31.181Z,99794.40
2023-08-05T18:52:07.053Z,99643.00
2023-08-05T18:54:43.417Z,99638.20
2023-08-05T18:57:18.816Z,99643.80
2023-08-05T18:59:54.123Z,99653.60
2023-08-05T19:02:29.483Z,99666.80
2023-08-05T19:05:05.397Z,99665.60
2023-08-05T19:07:42.183Z,99665.80
2023-08-05T19:10:17.745Z,99680.00
2023-08-05T19:12:53.723Z,99681.40
2023-08-05T19:15:29.174Z,99684.20
2023-08-05T19:18:04.710Z,99687.00
2023-08-05T19:20:55.318Z,99687.00
2023-08-05T19:23:32.700Z,99691.60
2023-08-05T19:26:10.037Z,99696.20
2023-08-05T19:28:45.467Z,99696.40
2023-08-05T19:31:20.761Z,99691.40
2023-08-05T19:33:56.149Z,99687.80
2023-08-05T19:36:31.496Z,99683.60
2023-08-05T19:39:07.318Z,99673.60
2023-08-05T19:41:42.679Z,99666.40
2023-08-05T19:44:17.179Z,99667.20
2023-08-05T19:46:52.497Z,99667.40
2023-08-05T19:49:27.534Z,99666.60
2023-08-05T19:52:02.913Z,99663.40
2023-08-05T19:54:37.855Z,99655.40
2023-08-05T19:57:13.326Z,99639.60
2023-08-05T19:59:48.965Z,99632.20
2023-08-05T20:02:27.136Z,99635.20
2023-08-05T20:05:02.531Z,99633.20
2023-08-05T20:07:37.893Z,99627.40
2023-08-05T20:10:14.577Z,99615.00
2023-08-05T20:12:50.951Z,99604.80
2023-08-05T20:15:26.725Z,99605.20
2023-08-05T20:18:02.034Z,99604.60
2023-08-05T20:20:37.674Z,99608.80
2023-08-05T20:23:13.663Z,99617.20
2023-08-05T20:25:48.603Z,99626.20
2023-08-05T20:28:25.169Z,99621.80
2023-08-05T20:31:00.521Z,99618.60
2023-08-05T20:33:36.231Z,99616.40
2023-08-05T20:36:46.452Z,99610.00
2023-08-05T20:39:22.427Z,99612.20
2023-08-05T20:41:58.057Z,99608.60
2023-08-05T20:44:32.950Z,99587.00
2023-08-05T20:47:08.184Z,99572.00
2023-08-05T20:50:07.305Z,99569.80
2023-08-05T20:52:43.632Z,99559.20
2023-08-05T20:55:19.276Z,99557.20
2023-08-05T20:57:55.068Z,99566.40
2023-08-05T21:00:30.129Z,99573.40
2023-08-05T21:03:06.125Z,99573.00
2023-08-05T21:05:42.188Z,99572.40
2023-08-05T21:08:16.959Z,99569.60
2023-08-05T21:11:01.763Z,99564.40
2023-08-05T21:13:37.273Z,99559.20
2023-08-05T21:16:12.930Z,99554.80
2023-08-05T21:18:48.584Z,99552.40
2023-08-05T21:21:23.918Z,99549.80
2023-08-05T21:23:59.048Z,99555.20
2023-08-05T21:26:34.168Z,99570.00
2023-08-05T21:29:09.110Z,99569.60
2023-08-05T21:31:44.748Z,99577.20
2023-08-05T21:34:20.943Z,99570.00
2023-08-05T21:36:56.105Z,99561.20
2023-08-05T21:39:31.152Z,99563.40
2023-08-05T21:42:06.522Z,99556.60
2023-08-05T21:44:41.365Z,99544.80
2023-08-05T21:47:17.436Z,99536.40
2023-08-05T21:49:52.857Z,99524.80
2023-08-05T21:52:28.719Z,99520.20
2023-08-05T21:55:04.535Z,99513.40
2023-08-05T21:57:39.704Z,99506.20
2023-08-05T22:00:19.191Z,99515.00
2023-08-05T22:02:53.889Z,99518.80
2023-08-05T22:05:28.834Z,99514.80
2023-08-05T22:08:04.243Z,99496.60
2023-08-05T22:10:40.338Z,99484.80
2023-08-05T22:13:15.954Z,99482.80
2023-08-05T22:15:55.715Z,99480.00
2023-08-05T22:18:31.045Z,99477.20
2023-08-05T22:21:06.109Z,99480.80
2023-08-05T22:23:41.069Z,99474.00
2023-08-05T22:26:16.396Z,99466.00
2023-08-05T22:28:51.274Z,99455.80
2023-08-05T22:31:26.369Z,99444.40
2023-08-05T22:34:01.586Z,99435.80
2023-08-05T22:36:36.882Z,99430.60
2023-08-05T22:39:12.168Z,99426.60
2023-08-05T22:41:47.161Z,99425.00
2023-08-05T22:44:22.736Z,99410.60
2023-08-05T22:46:57.855Z,99406.60
2023-08-05T22:49:33.093Z,99405.60
2023-08-05T22:52:09.655Z,99401.20
2023-08-05T22:54:45.213Z,99394.40
2023-08-05T22:57:19.663Z,99392.60
2023-08-05T22:59:57.460Z,99389.40
2023-08-05T23:02:32.626Z,99381.80
2023-08-05T23:05:09.090Z,99373.60
2023-08-05T23:07:44.151Z,99383.40
2023-08-05T23:10:19.212Z,99378.20
2023-08-05T23:12:54.480Z,99366.00
2023-08-05T23:15:35.492Z,99366.60
2023-08-05T23:18:11.098Z,99361.20
2023-08-05T23:20:46.369Z,99355.00
2023-08-05T23:23:21.542Z,99343.00
2023-08-05T23:25:57.961Z,99334.60
